Time;durP1;ratioP1;P1;durP2;ratioP2;P2;SDS_P1;SDS_P2;PMS_P1;PMS_P2;Temp;Humidity;BMP_temperature;BMP_pressure;BME280_temperature;BME280_humidity;BME280_pressure;Samples;Min_cycle;Max_cycle;Signal;HPM_P1;HPM_P2
2022/01/20 00:03:18;;;;;;;;;;;8.30;61.10;;;;;;5016301;28;19902;-93
2022/01/20 00:08:38;;;;;;;;;;;8.30;61.20;;;;;;4986321;28;20009;-94
2022/01/20 00:32:58;;;;;;;;;;;8.30;61.90;;;;;;5011625;28;19960;-95
2022/01/20 00:37:14;;;;;;;;;;;8.30;61.90;;;;;;5006240;28;19917;-95
2022/01/20 00:38:15;;;;;;;;;;;8.30;61.60;;;;;;5023307;28;19960;-96
2022/01/20 00:59:04;;;;;;;;;;;8.20;62.20;;;;;;5004272;28;19932;-96
2022/01/20 01:01:29;;;;;;;;;;;8.20;62.10;;;;;;4993218;28;19988;-94
2022/01/20 01:03:55;;;;;;;;;;;8.20;62.20;;;;;;4995398;28;19952;-96
2022/01/20 01:09:06;;;;;;;;;;;8.30;62.40;;;;;;4959429;29;20106;-94
2022/01/20 01:11:35;;;;;;;;;;;8.40;62.70;;;;;;4980197;28;20281;-94
2022/01/20 01:14:02;;;;;;;;;;;8.40;62.80;;;;;;5017745;28;19926;-95
2022/01/20 01:16:42;;;;;;;;;;;8.50;63.00;;;;;;4992557;28;19941;-93
2022/01/20 01:22:04;;;;;;;;;;;8.70;63.40;;;;;;5020531;28;20096;-94
2022/01/20 01:24:30;;;;;;;;;;;8.80;63.60;;;;;;5002424;28;19941;-95
2022/01/20 01:26:55;;;;;;;;;;;8.90;63.70;;;;;;5001319;28;19922;-96
2022/01/20 01:29:42;;;;;;;;;;;9.00;63.70;;;;;;5004755;28;19997;-93
2022/01/20 01:32:09;;;;;;;;;;;9.10;63.70;;;;;;5025151;28;19917;-95
2022/01/20 01:34:39;;;;;;;;;;;9.30;63.70;;;;;;5025055;28;19917;-94
2022/01/20 01:37:14;;;;;;;;;;;9.30;63.60;;;;;;4999643;28;19929;-95
2022/01/20 01:39:42;;;;;;;;;;;9.40;63.60;;;;;;5004626;28;19917;-95
2022/01/20 01:42:09;;;;;;;;;;;9.40;63.60;;;;;;5006607;28;19916;-94
2022/01/20 01:44:37;;;;;;;;;;;9.50;63.70;;;;;;5012020;28;20155;-95
2022/01/20 01:47:03;;;;;;;;;;;9.50;63.60;;;;;;5010732;28;19913;-95
2022/01/20 01:49:29;;;;;;;;;;;9.60;63.50;;;;;;5010700;28;19965;-94
2022/01/20 01:51:54;;;;;;;;;;;9.70;63.50;;;;;;5005228;28;19925;-95
2022/01/20 01:54:20;;;;;;;;;;;9.80;63.50;;;;;;5000523;28;19919;-93
2022/01/20 01:56:47;;;;;;;;;;;9.80;63.50;;;;;;5013352;28;20045;-95
2022/01/20 01:59:12;;;;;;;;;;;9.80;63.50;;;;;;4994094;28;19958;-95
2022/01/20 02:01:40;;;;;;;;;;;9.80;63.50;;;;;;4984612;28;19918;-94
2022/01/20 02:04:15;;;;;;;;;;;9.80;63.50;;;;;;4986818;28;19968;-94
2022/01/20 02:20:00;;;;;;;;;;;9.90;63.60;;;;;;4989816;28;19952;-92
2022/01/20 02:22:26;;;;;;;;;;;9.80;63.30;;;;;;4997165;28;20445;-94
2022/01/20 02:24:51;;;;;;;;;;;9.80;63.10;;;;;;4990391;28;19922;-95
2022/01/20 02:27:19;;;;;;;;;;;9.80;62.90;;;;;;4999331;28;19924;-94
2022/01/20 02:33:03;;;;;;;;;;;9.70;63.00;;;;;;4943966;29;19923;-95
2022/01/20 02:35:30;;;;;;;;;;;9.70;63.20;;;;;;4995216;28;19914;-95
2022/01/20 02:38:01;;;;;;;;;;;9.70;63.30;;;;;;4989202;28;20398;-95
2022/01/20 02:45:41;;;;;;;;;;;9.80;63.10;;;;;;5012240;28;19921;-96
2022/01/20 02:48:06;;;;;;;;;;;9.70;63.00;;;;;;4998791;28;19929;-94
2022/01/20 02:50:32;;;;;;;;;;;9.70;62.90;;;;;;5007721;28;20028;-94
2022/01/20 02:52:57;;;;;;;;;;;9.70;63.10;;;;;;5008034;28;19913;-95
2022/01/20 02:55:23;;;;;;;;;;;9.70;63.50;;;;;;5007487;28;19914;-95
2022/01/20 02:57:49;;;;;;;;;;;9.80;63.60;;;;;;5007781;28;19988;-96
2022/01/20 03:00:14;;;;;;;;;;;9.80;63.70;;;;;;5008451;28;19982;-95
2022/01/20 03:02:42;;;;;;;;;;;9.90;63.70;;;;;;5007621;28;19920;-95
2022/01/20 03:05:10;;;;;;;;;;;9.90;63.70;;;;;;5010179;28;20374;-94
2022/01/20 03:07:36;;;;;;;;;;;10.00;63.80;;;;;;5008720;28;19898;-93
2022/01/20 03:10:03;;;;;;;;;;;10.00;63.70;;;;;;4997786;28;19920;-95
2022/01/20 03:12:29;;;;;;;;;;;10.10;63.60;;;;;;5002825;28;20288;-96
2022/01/20 03:14:55;;;;;;;;;;;10.10;63.60;;;;;;5004776;28;19936;-94
2022/01/20 03:17:22;;;;;;;;;;;10.10;63.50;;;;;;5018533;28;19922;-96
2022/01/20 03:19:48;;;;;;;;;;;10.10;63.50;;;;;;4996393;28;19965;-93
2022/01/20 03:22:14;;;;;;;;;;;10.10;63.40;;;;;;4987873;28;19956;-93
2022/01/20 03:24:39;;;;;;;;;;;10.10;63.40;;;;;;4988060;28;19925;-94
2022/01/20 03:27:05;;;;;;;;;;;10.10;63.30;;;;;;5004211;28;19921;-95
2022/01/20 03:29:31;;;;;;;;;;;10.20;63.20;;;;;;5003878;28;19918;-95
2022/01/20 03:31:57;;;;;;;;;;;10.10;63.20;;;;;;5005116;28;19925;-94
2022/01/20 03:34:22;;;;;;;;;;;10.20;63.20;;;;;;5006485;28;19917;-95
2022/01/20 03:36:48;;;;;;;;;;;10.20;63.30;;;;;;5008425;28;19922;-94
2022/01/20 03:39:19;;;;;;;;;;;10.20;63.20;;;;;;5005692;28;19922;-95
2022/01/20 03:41:46;;;;;;;;;;;10.20;63.10;;;;;;5003328;28;19935;-95
2022/01/20 03:44:13;;;;;;;;;;;10.20;63.10;;;;;;4998385;28;20361;-95
2022/01/20 03:46:38;;;;;;;;;;;10.20;63.20;;;;;;5006418;28;20552;-93
2022/01/20 03:49:10;;;;;;;;;;;10.20;63.20;;;;;;5016171;28;19922;-95
2022/01/20 03:51:37;;;;;;;;;;;10.20;63.20;;;;;;5023341;28;19918;-94
2022/01/20 03:54:05;;;;;;;;;;;10.20;63.20;;;;;;4999479;28;19917;-96
2022/01/20 03:56:31;;;;;;;;;;;10.20;63.30;;;;;;5002117;28;20097;-94
2022/01/20 03:58:58;;;;;;;;;;;10.20;63.30;;;;;;4990472;28;19922;-95
2022/01/20 04:01:24;;;;;;;;;;;10.20;63.30;;;;;;4997292;28;19929;-95
2022/01/20 04:03:49;;;;;;;;;;;10.20;63.30;;;;;;5013085;28;19914;-94
2022/01/20 04:06:15;;;;;;;;;;;10.20;63.10;;;;;;4995745;28;19933;-95
2022/01/20 04:08:42;;;;;;;;;;;10.20;63.00;;;;;;4996202;28;20071;-95
2022/01/20 04:11:12;;;;;;;;;;;10.10;62.80;;;;;;5008907;28;20389;-95
2022/01/20 04:13:37;;;;;;;;;;;10.00;62.50;;;;;;5004886;28;19925;-92
2022/01/20 04:16:11;;;;;;;;;;;9.90;62.50;;;;;;5007386;28;19902;-95
2022/01/20 04:18:37;;;;;;;;;;;9.90;62.90;;;;;;5012681;28;19932;-94
2022/01/20 04:21:03;;;;;;;;;;;10.00;63.20;;;;;;4998346;28;19902;-94
2022/01/20 04:23:30;;;;;;;;;;;10.00;63.20;;;;;;5001351;28;19924;-93
2022/01/20 04:25:56;;;;;;;;;;;10.00;63.20;;;;;;5001090;28;20000;-92
2022/01/20 04:28:21;;;;;;;;;;;10.00;63.10;;;;;;5004617;28;19957;-95
2022/01/20 04:30:47;;;;;;;;;;;10.00;63.20;;;;;;5004669;28;19925;-93
2022/01/20 04:33:12;;;;;;;;;;;10.00;63.30;;;;;;5017743;28;19922;-94
2022/01/20 04:35:38;;;;;;;;;;;10.00;62.90;;;;;;5006681;28;19924;-92
2022/01/20 04:38:04;;;;;;;;;;;9.70;59.20;;;;;;5006219;28;19916;-92
2022/01/20 04:40:36;;;;;;;;;;;9.20;58.40;;;;;;5019140;28;19969;-93
2022/01/20 04:43:02;;;;;;;;;;;8.80;58.40;;;;;;4990636;28;20273;-94
2022/01/20 04:45:33;;;;;;;;;;;8.30;58.70;;;;;;4992647;28;19920;-93
2022/01/20 04:58:53;;;;;;;;;;;7.30;61.80;;;;;;5006671;28;20008;-92
2022/01/20 05:01:19;;;;;;;;;;;7.30;62.40;;;;;;4991932;28;19913;-93
2022/01/20 05:03:45;;;;;;;;;;;7.30;62.60;;;;;;4991197;28;19928;-92
2022/01/20 05:06:11;;;;;;;;;;;7.30;62.70;;;;;;4988080;28;20158;-92
2022/01/20 05:08:36;;;;;;;;;;;7.40;62.70;;;;;;4999641;28;19918;-93
2022/01/20 05:11:04;;;;;;;;;;;7.40;62.80;;;;;;5004737;28;19917;-93
2022/01/20 05:13:40;;;;;;;;;;;7.50;62.80;;;;;;5006684;28;20016;-95
2022/01/20 05:16:06;;;;;;;;;;;7.50;62.90;;;;;;5001730;28;19925;-95
2022/01/20 05:18:31;;;;;;;;;;;7.60;62.80;;;;;;4999346;28;19926;-95
2022/01/20 05:20:57;;;;;;;;;;;7.70;62.70;;;;;;5023854;28;20424;-96
2022/01/20 05:23:23;;;;;;;;;;;7.70;62.70;;;;;;5001353;28;19941;-96
2022/01/20 05:25:49;;;;;;;;;;;7.70;62.80;;;;;;4992692;28;19940;-96
2022/01/20 05:28:15;;;;;;;;;;;7.70;62.90;;;;;;4997841;28;19948;-95
2022/01/20 05:30:42;;;;;;;;;;;7.80;62.80;;;;;;5007634;28;19917;-96
2022/01/20 05:33:08;;;;;;;;;;;7.80;62.70;;;;;;5012097;28;20008;-95
2022/01/20 05:35:34;;;;;;;;;;;7.70;62.60;;;;;;5010097;28;19976;-96
2022/01/20 05:38:01;;;;;;;;;;;7.70;62.40;;;;;;4991535;28;19922;-95
2022/01/20 05:40:29;;;;;;;;;;;7.70;62.30;;;;;;4991393;28;19949;-96
2022/01/20 05:42:55;;;;;;;;;;;7.70;62.30;;;;;;4987544;28;19917;-93
2022/01/20 05:45:21;;;;;;;;;;;7.70;62.30;;;;;;4985414;28;19929;-93
2022/01/20 05:47:47;;;;;;;;;;;7.70;62.30;;;;;;4987255;28;19961;-92
2022/01/20 05:50:14;;;;;;;;;;;7.60;62.10;;;;;;4986056;28;19978;-94
2022/01/20 05:52:42;;;;;;;;;;;7.50;62.20;;;;;;4986993;28;19960;-94
2022/01/20 05:55:12;;;;;;;;;;;7.50;62.20;;;;;;4990489;28;19972;-92
2022/01/20 05:57:37;;;;;;;;;;;7.50;62.30;;;;;;5014373;28;19917;-95
2022/01/20 06:00:07;;;;;;;;;;;7.50;62.40;;;;;;5015119;28;19917;-94
2022/01/20 06:03:35;;;;;;;;;;;7.50;62.50;;;;;;5000599;28;19910;-95
2022/01/20 06:05:19;;;;;;;;;;;7.50;62.50;;;;;;4997769;28;19918;-95
2022/01/20 06:07:45;;;;;;;;;;;7.60;62.50;;;;;;4988321;28;19932;-96
2022/01/20 06:10:11;;;;;;;;;;;7.50;62.60;;;;;;4993449;28;19925;-95
2022/01/20 06:12:36;;;;;;;;;;;7.60;62.60;;;;;;4989705;28;19928;-95
2022/01/20 06:15:02;;;;;;;;;;;7.70;62.70;;;;;;5014766;28;20320;-93
2022/01/20 06:17:29;;;;;;;;;;;7.70;62.80;;;;;;5010027;28;19922;-94
2022/01/20 06:19:54;;;;;;;;;;;7.80;62.80;;;;;;5008949;28;19922;-93
2022/01/20 06:22:20;;;;;;;;;;;7.80;62.80;;;;;;4989423;28;20384;-93
2022/01/20 06:24:45;;;;;;;;;;;7.80;62.70;;;;;;5016853;28;19916;-93
2022/01/20 06:27:11;;;;;;;;;;;7.80;62.60;;;;;;5030564;28;19921;-94
2022/01/20 06:29:37;;;;;;;;;;;7.80;62.50;;;;;;5009485;28;19917;-92
2022/01/20 06:32:02;;;;;;;;;;;7.80;62.40;;;;;;4990035;28;19912;-92
2022/01/20 06:34:31;;;;;;;;;;;7.80;62.10;;;;;;5010521;28;19918;-94
2022/01/20 06:36:57;;;;;;;;;;;7.70;62.10;;;;;;5010119;28;19938;-93
2022/01/20 06:39:22;;;;;;;;;;;7.70;61.80;;;;;;5010505;28;20341;-93
2022/01/20 06:41:48;;;;;;;;;;;7.60;61.70;;;;;;5000351;28;20329;-93
2022/01/20 06:44:14;;;;;;;;;;;7.50;61.80;;;;;;4986202;28;19973;-95
2022/01/20 06:46:40;;;;;;;;;;;7.50;61.60;;;;;;4990911;28;19898;-94
2022/01/20 06:49:05;;;;;;;;;;;7.40;61.40;;;;;;5006259;28;19921;-95
2022/01/20 06:51:31;;;;;;;;;;;7.40;61.60;;;;;;5002507;28;19902;-93
2022/01/20 06:53:57;;;;;;;;;;;7.30;61.40;;;;;;5006532;28;19914;-94
2022/01/20 06:56:22;;;;;;;;;;;7.20;61.30;;;;;;5005484;28;19917;-94
2022/01/20 06:58:48;;;;;;;;;;;7.20;61.30;;;;;;4994617;28;19920;-93
2022/01/20 07:01:15;;;;;;;;;;;7.10;61.30;;;;;;4998412;28;19922;-93
2022/01/20 07:03:41;;;;;;;;;;;7.10;61.40;;;;;;5002877;28;19957;-91
2022/01/20 07:06:06;;;;;;;;;;;7.10;61.70;;;;;;4997485;28;19925;-93
2022/01/20 07:08:32;;;;;;;;;;;7.20;62.10;;;;;;5006928;28;19957;-92
2022/01/20 07:10:57;;;;;;;;;;;7.20;62.00;;;;;;4995417;28;19918;-94
2022/01/20 07:13:23;;;;;;;;;;;7.20;62.00;;;;;;5012699;28;20404;-92
2022/01/20 07:15:48;;;;;;;;;;;7.20;62.20;;;;;;4987323;28;20024;-92
2022/01/20 07:18:14;;;;;;;;;;;7.20;62.20;;;;;;5008686;28;19925;-93
2022/01/20 07:20:39;;;;;;;;;;;7.30;62.40;;;;;;5004519;28;19925;-92
2022/01/20 07:23:05;;;;;;;;;;;7.40;62.40;;;;;;5004452;28;19918;-92
2022/01/20 07:25:31;;;;;;;;;;;7.40;62.20;;;;;;4992874;28;19917;-92
2022/01/20 07:27:56;;;;;;;;;;;7.30;62.00;;;;;;5019733;28;20352;-93
2022/01/20 07:30:22;;;;;;;;;;;7.30;61.90;;;;;;4997470;28;19968;-93
2022/01/20 07:32:48;;;;;;;;;;;7.30;61.60;;;;;;4995958;28;19921;-95
2022/01/20 07:35:13;;;;;;;;;;;7.30;61.70;;;;;;4989603;28;19913;-92
2022/01/20 07:37:39;;;;;;;;;;;7.30;61.80;;;;;;4996431;28;19914;-93
2022/01/20 07:40:04;;;;;;;;;;;7.30;62.00;;;;;;5016839;28;20012;-92
2022/01/20 07:42:30;;;;;;;;;;;7.40;62.00;;;;;;5011662;28;19921;-94
2022/01/20 07:44:55;;;;;;;;;;;7.40;62.00;;;;;;5028921;28;19921;-93
2022/01/20 07:47:21;;;;;;;;;;;7.40;62.00;;;;;;5020163;28;19917;-93
2022/01/20 07:49:46;;;;;;;;;;;7.40;62.00;;;;;;5006405;28;20667;-91
2022/01/20 07:52:14;;;;;;;;;;;7.50;62.20;;;;;;5012577;28;19918;-95
2022/01/20 07:54:39;;;;;;;;;;;7.60;62.50;;;;;;5010877;28;19953;-95
2022/01/20 07:57:05;;;;;;;;;;;7.70;62.70;;;;;;5014345;28;19914;-95
2022/01/20 07:59:30;;;;;;;;;;;7.90;62.90;;;;;;5010932;28;19928;-94
2022/01/20 08:01:56;;;;;;;;;;;8.00;63.50;;;;;;5006515;28;19926;-95
2022/01/20 08:04:22;;;;;;;;;;;8.30;64.00;;;;;;5003360;28;19933;-93
2022/01/20 08:06:47;;;;;;;;;;;8.60;64.00;;;;;;4996322;28;19918;-93
2022/01/20 08:09:14;;;;;;;;;;;8.80;63.90;;;;;;4992273;28;19921;-95
2022/01/20 08:11:40;;;;;;;;;;;9.00;63.40;;;;;;4991302;28;20384;-94
2022/01/20 08:14:06;;;;;;;;;;;9.00;62.80;;;;;;4998292;28;19911;-95
2022/01/20 08:16:31;;;;;;;;;;;9.00;62.40;;;;;;5001836;28;19945;-95
2022/01/20 08:18:57;;;;;;;;;;;9.00;62.20;;;;;;4993607;28;19997;-95
2022/01/20 08:21:22;;;;;;;;;;;9.00;62.00;;;;;;5001609;28;19918;-93
2022/01/20 08:23:48;;;;;;;;;;;9.00;61.90;;;;;;5012239;28;19976;-93
2022/01/20 08:26:13;;;;;;;;;;;8.90;61.70;;;;;;4993661;28;20289;-94
2022/01/20 08:28:39;;;;;;;;;;;8.90;61.70;;;;;;5016793;28;20304;-95
2022/01/20 08:31:04;;;;;;;;;;;8.80;61.70;;;;;;4995740;28;20634;-95
2022/01/20 08:33:30;;;;;;;;;;;8.80;61.70;;;;;;5016082;28;19918;-94
2022/01/20 08:35:55;;;;;;;;;;;8.80;61.70;;;;;;4996341;28;19995;-90
2022/01/20 08:38:21;;;;;;;;;;;8.70;61.60;;;;;;4997162;28;19929;-91
2022/01/20 08:40:46;;;;;;;;;;;8.60;61.60;;;;;;4996611;28;19921;-90
2022/01/20 08:43:12;;;;;;;;;;;8.50;61.50;;;;;;4994350;28;19933;-93
2022/01/20 08:45:43;;;;;;;;;;;8.50;61.60;;;;;;4998632;28;20073;-94
2022/01/20 08:48:13;;;;;;;;;;;8.40;61.60;;;;;;5030328;28;20334;-94
2022/01/20 08:50:39;;;;;;;;;;;8.40;61.70;;;;;;5005107;28;19901;-96
2022/01/20 08:53:05;;;;;;;;;;;8.40;61.70;;;;;;5035119;28;19921;-94
2022/01/20 08:55:31;;;;;;;;;;;8.30;61.50;;;;;;5003378;28;19909;-94
2022/01/20 08:57:57;;;;;;;;;;;8.30;62.20;;;;;;5009830;28;19913;-94
2022/01/20 09:00:25;;;;;;;;;;;8.50;63.40;;;;;;5012838;28;19924;-93
2022/01/20 09:02:51;;;;;;;;;;;8.80;64.50;;;;;;5016359;28;19913;-94
2022/01/20 09:05:16;;;;;;;;;;;9.30;65.30;;;;;;5000387;28;19929;-96
2022/01/20 09:07:42;;;;;;;;;;;9.80;66.10;;;;;;5010418;28;19964;-95
2022/01/20 09:10:08;;;;;;;;;;;10.40;66.50;;;;;;5006647;28;19996;-93
2022/01/20 09:17:46;;;;;;;;;;;11.30;63.00;;;;;;5007649;28;19925;-92
2022/01/20 09:20:11;;;;;;;;;;;11.20;62.20;;;;;;4997594;28;19929;-92
2022/01/20 09:22:37;;;;;;;;;;;11.10;61.80;;;;;;5015344;28;20366;-94
2022/01/20 09:25:03;;;;;;;;;;;11.00;61.40;;;;;;4991241;28;20288;-90
2022/01/20 09:27:29;;;;;;;;;;;10.80;61.00;;;;;;4990224;28;20013;-93
2022/01/20 09:29:54;;;;;;;;;;;10.60;60.80;;;;;;5001698;28;19987;-93
2022/01/20 09:32:21;;;;;;;;;;;10.40;60.90;;;;;;4994408;28;20252;-92
2022/01/20 09:34:46;;;;;;;;;;;10.30;61.60;;;;;;4995119;28;20396;-90
2022/01/20 09:37:12;;;;;;;;;;;10.30;62.20;;;;;;4997553;28;19902;-91
2022/01/20 09:39:45;;;;;;;;;;;10.40;62.70;;;;;;4992659;28;19917;-91
2022/01/20 09:42:11;;;;;;;;;;;10.40;62.50;;;;;;4991887;28;19917;-91
2022/01/20 09:44:41;;;;;;;;;;;10.40;62.30;;;;;;5004927;28;19950;-90
2022/01/20 09:47:06;;;;;;;;;;;10.50;62.70;;;;;;5006217;28;19914;-90
2022/01/20 09:49:32;;;;;;;;;;;10.60;63.20;;;;;;5011124;28;19913;-91
2022/01/20 09:51:58;;;;;;;;;;;10.70;62.90;;;;;;5013533;28;19924;-92
2022/01/20 09:54:23;;;;;;;;;;;10.80;62.50;;;;;;5018422;28;19914;-92
2022/01/20 09:56:57;;;;;;;;;;;10.80;62.10;;;;;;5004894;28;19964;-92
2022/01/20 09:59:23;;;;;;;;;;;10.70;61.90;;;;;;4995129;28;19981;-93
2022/01/20 10:01:56;;;;;;;;;;;10.70;61.70;;;;;;5002611;28;19949;-91
2022/01/20 10:04:23;;;;;;;;;;;10.60;61.60;;;;;;5003062;28;19917;-92
2022/01/20 10:07:02;;;;;;;;;;;10.50;61.20;;;;;;4987945;28;19917;-93
2022/01/20 10:09:36;;;;;;;;;;;10.20;60.80;;;;;;4998431;28;19914;-92
2022/01/20 10:12:02;;;;;;;;;;;10.10;61.20;;;;;;5007073;28;19921;-92
2022/01/20 10:14:37;;;;;;;;;;;10.10;62.50;;;;;;5008417;28;20400;-92
2022/01/20 10:17:13;;;;;;;;;;;10.20;63.20;;;;;;5011918;28;19917;-92
2022/01/20 10:19:43;;;;;;;;;;;10.50;63.80;;;;;;5016859;28;19925;-91
2022/01/20 10:22:16;;;;;;;;;;;10.80;64.00;;;;;;5007335;28;19933;-91
2022/01/20 10:24:42;;;;;;;;;;;11.20;64.10;;;;;;4992006;28;19960;-92
2022/01/20 10:27:09;;;;;;;;;;;11.50;64.50;;;;;;5011461;28;19929;-92
2022/01/20 10:29:35;;;;;;;;;;;11.90;64.50;;;;;;5026068;28;19909;-92
2022/01/20 10:32:00;;;;;;;;;;;12.40;64.80;;;;;;5027238;28;19921;-93
2022/01/20 10:34:32;;;;;;;;;;;12.80;63.80;;;;;;5008590;28;19909;-91
2022/01/20 10:37:00;;;;;;;;;;;13.00;62.90;;;;;;5017030;28;19918;-93
2022/01/20 10:39:27;;;;;;;;;;;13.00;62.00;;;;;;5001096;28;19914;-93
2022/01/20 10:41:56;;;;;;;;;;;13.00;61.90;;;;;;5001160;28;19945;-92
2022/01/20 10:44:21;;;;;;;;;;;13.00;62.00;;;;;;4994957;28;20009;-94
2022/01/20 10:46:49;;;;;;;;;;;13.10;62.30;;;;;;5012972;28;19918;-92
2022/01/20 10:49:16;;;;;;;;;;;13.00;61.70;;;;;;5015521;28;19921;-94
2022/01/20 10:51:43;;;;;;;;;;;13.00;61.50;;;;;;4994420;28;19920;-94
2022/01/20 10:54:12;;;;;;;;;;;12.90;61.20;;;;;;5007938;28;19917;-92
2022/01/20 10:56:49;;;;;;;;;;;12.70;60.90;;;;;;4999087;28;20424;-93
2022/01/20 10:59:14;;;;;;;;;;;12.60;60.90;;;;;;5002403;28;19975;-94
2022/01/20 11:01:43;;;;;;;;;;;12.30;60.10;;;;;;4997602;28;19945;-92
2022/01/20 11:04:09;;;;;;;;;;;11.90;59.30;;;;;;5001750;28;19983;-92
2022/01/20 11:06:36;;;;;;;;;;;11.60;58.90;;;;;;5024264;28;20316;-91
2022/01/20 11:09:07;;;;;;;;;;;11.30;59.70;;;;;;5021902;28;19998;-91
2022/01/20 11:11:33;;;;;;;;;;;11.10;60.10;;;;;;4994929;28;20254;-91
2022/01/20 11:14:01;;;;;;;;;;;11.00;60.90;;;;;;4998051;28;19924;-92
2022/01/20 11:16:27;;;;;;;;;;;10.90;61.20;;;;;;4976099;28;19936;-91
2022/01/20 11:18:53;;;;;;;;;;;11.00;62.00;;;;;;5016604;28;19997;-93
2022/01/20 11:21:22;;;;;;;;;;;11.10;61.90;;;;;;4999128;28;19957;-92
2022/01/20 11:23:47;;;;;;;;;;;11.10;62.10;;;;;;4995999;28;19980;-93
2022/01/20 11:26:13;;;;;;;;;;;11.00;61.90;;;;;;4993791;28;20365;-92
2022/01/20 11:28:54;;;;;;;;;;;11.00;61.90;;;;;;4992311;28;20253;-93
2022/01/20 11:31:27;;;;;;;;;;;11.00;62.10;;;;;;4998395;28;19921;-91
2022/01/20 11:33:53;;;;;;;;;;;11.00;62.10;;;;;;4986559;28;19918;-91
2022/01/20 11:36:27;;;;;;;;;;;10.90;62.30;;;;;;5017486;28;19955;-90
2022/01/20 11:38:58;;;;;;;;;;;11.00;62.70;;;;;;4996844;28;19940;-93
2022/01/20 11:41:32;;;;;;;;;;;11.20;63.20;;;;;;5003448;28;19921;-93
2022/01/20 11:44:06;;;;;;;;;;;11.50;63.00;;;;;;4996146;28;19977;-93
2022/01/20 11:46:38;;;;;;;;;;;11.80;63.40;;;;;;4987802;28;19937;-94
2022/01/20 11:49:09;;;;;;;;;;;12.20;63.10;;;;;;5006789;28;19924;-91
2022/01/20 11:51:42;;;;;;;;;;;12.20;61.90;;;;;;4999497;28;19902;-91
2022/01/20 11:54:10;;;;;;;;;;;12.10;61.50;;;;;;4987780;28;19913;-93
2022/01/20 11:56:37;;;;;;;;;;;12.00;61.40;;;;;;5000071;28;19946;-93
2022/01/20 11:59:04;;;;;;;;;;;11.80;61.20;;;;;;5001580;28;19964;-90
2022/01/20 12:01:30;;;;;;;;;;;11.70;61.30;;;;;;5002951;28;19914;-90
2022/01/20 12:03:57;;;;;;;;;;;11.60;61.30;;;;;;4992775;28;20377;-93
2022/01/20 12:06:25;;;;;;;;;;;11.60;61.40;;;;;;4988242;28;19933;-91
2022/01/20 12:09:03;;;;;;;;;;;11.60;61.60;;;;;;4992898;28;20004;-92
2022/01/20 12:11:36;;;;;;;;;;;11.60;61.50;;;;;;4994827;28;19910;-92
2022/01/20 12:14:01;;;;;;;;;;;11.40;61.20;;;;;;4989165;28;19917;-93
2022/01/20 12:16:27;;;;;;;;;;;11.20;61.10;;;;;;5007365;28;20045;-93
2022/01/20 12:18:54;;;;;;;;;;;11.10;61.40;;;;;;5013021;28;19926;-89
2022/01/20 12:21:19;;;;;;;;;;;11.10;61.60;;;;;;5000402;28;19909;-92
2022/01/20 12:23:46;;;;;;;;;;;11.10;61.70;;;;;;4999857;28;19952;-93
2022/01/20 12:26:14;;;;;;;;;;;11.10;61.80;;;;;;4994825;28;20318;-90
2022/01/20 12:28:40;;;;;;;;;;;11.10;61.70;;;;;;4999763;28;20054;-92
2022/01/20 12:31:08;;;;;;;;;;;11.00;61.80;;;;;;5004823;28;19918;-91
2022/01/20 12:33:37;;;;;;;;;;;11.00;61.50;;;;;;4996671;28;19922;-92
2022/01/20 12:36:03;;;;;;;;;;;10.90;61.40;;;;;;5034674;28;20345;-92
2022/01/20 12:38:30;;;;;;;;;;;10.80;61.50;;;;;;4998837;28;19933;-91
2022/01/20 12:41:10;;;;;;;;;;;10.80;61.40;;;;;;5005134;28;19913;-91
2022/01/20 12:43:46;;;;;;;;;;;10.70;61.90;;;;;;4995161;28;19945;-91
2022/01/20 12:46:19;;;;;;;;;;;10.70;61.90;;;;;;4993957;28;19936;-92
2022/01/20 12:48:54;;;;;;;;;;;10.70;61.90;;;;;;4998570;28;20000;-91
2022/01/20 12:51:32;;;;;;;;;;;10.70;62.10;;;;;;5001257;28;19909;-90
2022/01/20 12:54:04;;;;;;;;;;;10.60;61.80;;;;;;4984517;28;19902;-91
2022/01/20 12:56:31;;;;;;;;;;;10.60;61.70;;;;;;5007679;28;19932;-92
2022/01/20 12:58:57;;;;;;;;;;;10.50;61.30;;;;;;5020709;28;19932;-91
2022/01/20 13:01:22;;;;;;;;;;;10.40;61.40;;;;;;5024041;28;19909;-92
2022/01/20 13:03:58;;;;;;;;;;;10.40;61.50;;;;;;5002166;28;19939;-92
2022/01/20 13:06:27;;;;;;;;;;;10.30;61.80;;;;;;4994578;28;19910;-93
2022/01/20 13:08:56;;;;;;;;;;;10.40;62.40;;;;;;4991226;28;19921;-91
2022/01/20 13:11:27;;;;;;;;;;;10.50;62.70;;;;;;4987193;28;19921;-92
2022/01/20 13:13:58;;;;;;;;;;;10.70;62.70;;;;;;4988776;28;19944;-91
2022/01/20 13:16:23;;;;;;;;;;;10.80;61.30;;;;;;5005360;28;19961;-92
2022/01/20 13:18:56;;;;;;;;;;;10.70;60.20;;;;;;5001377;28;19976;-91
2022/01/20 13:21:32;;;;;;;;;;;10.60;59.40;;;;;;5016997;28;20023;-91
2022/01/20 13:23:58;;;;;;;;;;;10.30;58.60;;;;;;4994752;28;19921;-92
2022/01/20 13:26:24;;;;;;;;;;;10.20;59.40;;;;;;4998843;28;19924;-91
2022/01/20 13:29:00;;;;;;;;;;;10.20;59.30;;;;;;4988362;28;19917;-90
2022/01/20 13:31:26;;;;;;;;;;;10.00;59.40;;;;;;5019180;28;19913;-90
2022/01/20 13:33:52;;;;;;;;;;;9.80;59.10;;;;;;5006761;28;20407;-90
2022/01/20 13:36:20;;;;;;;;;;;9.50;57.10;;;;;;4995070;28;20250;-90
2022/01/20 13:38:48;;;;;;;;;;;8.90;56.50;;;;;;4995428;28;19979;-92
2022/01/20 13:41:19;;;;;;;;;;;8.50;57.30;;;;;;5007552;28;20444;-91
2022/01/20 13:46:30;;;;;;;;;;;8.10;59.10;;;;;;5003142;28;19975;-87
2022/01/20 13:49:05;;;;;;;;;;;7.90;59.70;;;;;;4992173;28;20324;-87
2022/01/20 13:51:30;;;;;;;;;;;7.80;60.00;;;;;;5014979;28;20704;-88
2022/01/20 13:53:56;;;;;;;;;;;7.70;60.40;;;;;;5018136;28;19928;-88
2022/01/20 13:56:22;;;;;;;;;;;7.70;60.90;;;;;;5006372;28;19971;-89
2022/01/20 13:58:47;;;;;;;;;;;7.60;61.20;;;;;;5016024;28;20604;-89
2022/01/20 14:01:13;;;;;;;;;;;7.70;61.50;;;;;;5027776;28;19918;-88
2022/01/20 14:03:40;;;;;;;;;;;7.80;61.80;;;;;;4989369;28;19965;-90
2022/01/20 14:06:06;;;;;;;;;;;7.90;61.90;;;;;;4995258;28;20293;-90
2022/01/20 14:08:35;;;;;;;;;;;7.90;62.00;;;;;;4995107;28;19933;-91
2022/01/20 14:11:01;;;;;;;;;;;8.00;62.10;;;;;;4988470;28;20068;-87
2022/01/20 14:13:26;;;;;;;;;;;8.00;62.10;;;;;;4985682;28;20008;-87
2022/01/20 14:15:59;;;;;;;;;;;8.10;62.00;;;;;;4991503;28;20024;-86
2022/01/20 14:18:31;;;;;;;;;;;8.10;61.90;;;;;;5011448;28;19920;-87
2022/01/20 14:20:56;;;;;;;;;;;8.10;61.70;;;;;;4986836;28;20300;-86
2022/01/20 14:23:22;;;;;;;;;;;8.00;61.50;;;;;;5011030;28;19969;-89
2022/01/20 14:25:48;;;;;;;;;;;7.80;61.30;;;;;;4981674;28;20389;-85
2022/01/20 14:28:16;;;;;;;;;;;7.70;61.20;;;;;;5008792;28;19918;-88
2022/01/20 14:30:42;;;;;;;;;;;7.70;61.30;;;;;;4992214;28;19917;-87
2022/01/20 14:33:08;;;;;;;;;;;7.70;61.30;;;;;;4999005;28;19979;-87
2022/01/20 14:35:34;;;;;;;;;;;7.70;61.30;;;;;;5013840;28;19979;-87
2022/01/20 14:38:00;;;;;;;;;;;7.60;61.50;;;;;;5008175;28;19917;-87
2022/01/20 14:40:25;;;;;;;;;;;7.60;61.50;;;;;;4999044;28;19922;-86
2022/01/20 14:42:51;;;;;;;;;;;7.50;61.70;;;;;;5018030;28;19920;-86
2022/01/20 14:45:19;;;;;;;;;;;7.50;61.90;;;;;;4995042;28;20009;-87
2022/01/20 14:47:52;;;;;;;;;;;7.60;62.00;;;;;;5021476;28;19916;-87
2022/01/20 14:50:18;;;;;;;;;;;7.50;62.10;;;;;;5012840;28;19914;-87
2022/01/20 14:52:43;;;;;;;;;;;7.70;62.30;;;;;;4987841;28;20008;-87
2022/01/20 14:55:09;;;;;;;;;;;7.70;62.40;;;;;;5007478;28;20353;-87
2022/01/20 14:57:34;;;;;;;;;;;7.80;62.60;;;;;;4987523;28;19926;-87
2022/01/20 15:00:00;;;;;;;;;;;8.00;62.60;;;;;;4985319;28;19921;-88
2022/01/20 15:02:25;;;;;;;;;;;8.10;62.50;;;;;;5018673;28;19968;-89
2022/01/20 15:04:52;;;;;;;;;;;8.10;62.60;;;;;;5015897;28;19971;-89
2022/01/20 15:07:18;;;;;;;;;;;8.10;62.30;;;;;;5010052;28;20008;-89
2022/01/20 15:09:43;;;;;;;;;;;8.10;62.10;;;;;;4997811;28;20072;-89
2022/01/20 15:12:09;;;;;;;;;;;8.00;62.20;;;;;;4992813;28;20035;-89
2022/01/20 15:14:35;;;;;;;;;;;8.00;62.10;;;;;;5002131;28;20289;-89
2022/01/20 15:17:01;;;;;;;;;;;8.00;62.10;;;;;;5008537;28;20285;-90
2022/01/20 15:19:26;;;;;;;;;;;7.90;62.20;;;;;;4981160;28;19928;-89
2022/01/20 15:21:52;;;;;;;;;;;8.00;62.30;;;;;;5001838;28;19928;-89
2022/01/20 15:24:17;;;;;;;;;;;8.00;62.40;;;;;;5002656;28;19909;-90
2022/01/20 15:26:43;;;;;;;;;;;8.00;62.50;;;;;;5021361;28;19944;-89
2022/01/20 15:29:08;;;;;;;;;;;8.00;62.60;;;;;;4996711;28;19910;-89
2022/01/20 15:31:37;;;;;;;;;;;8.00;62.60;;;;;;4988990;28;19922;-89
2022/01/20 15:34:14;;;;;;;;;;;8.00;62.20;;;;;;4997685;28;20267;-89
2022/01/20 15:36:40;;;;;;;;;;;7.90;61.90;;;;;;4987963;28;20277;-89
2022/01/20 15:39:07;;;;;;;;;;;7.80;62.00;;;;;;5016287;28;20691;-90
2022/01/20 15:41:33;;;;;;;;;;;7.70;61.80;;;;;;4998867;28;19919;-90
2022/01/20 15:44:08;;;;;;;;;;;7.70;61.80;;;;;;5024269;28;19917;-89
2022/01/20 15:46:35;;;;;;;;;;;7.60;61.70;;;;;;4981166;28;20466;-89
2022/01/20 15:49:02;;;;;;;;;;;7.60;62.00;;;;;;5013947;28;20389;-88
2022/01/20 15:51:31;;;;;;;;;;;7.60;62.00;;;;;;5015393;28;19909;-89
2022/01/20 15:53:57;;;;;;;;;;;7.50;62.10;;;;;;4978849;28;19914;-88
2022/01/20 15:56:23;;;;;;;;;;;7.50;62.00;;;;;;4998904;28;20016;-87
2022/01/20 15:58:48;;;;;;;;;;;7.40;61.40;;;;;;4999643;28;20033;-88